sensor_id;sensor_type;location;lat;lon;timestamp;temperature;humidity
8979;DHT22;4524;51.364;5.448;2023-04-25T00:00:16;7.80;99.90
8979;DHT22;4524;51.364;5.448;2023-04-25T00:02:44;7.80;99.90
8979;DHT22;4524;51.364;5.448;2023-04-25T00:05:13;7.80;99.90
8979;DHT22;4524;51.364;5.448;2023-04-25T00:07:43;7.90;99.90
8979;DHT22;4524;51.364;5.448;2023-04-25T00:10:12;7.90;99.90
8979;DHT22;4524;51.364;5.448;2023-04-25T00:12:40;7.90;99.90
8979;DHT22;4524;51.364;5.448;2023-04-25T00:15:09;7.90;99.90
8979;DHT22;4524;51.364;5.448;2023-04-25T00:17:37;7.90;99.90
8979;DHT22;4524;51.364;5.448;2023-04-25T00:20:06;7.70;99.90
8979;DHT22;4524;51.364;5.448;2023-04-25T00:22:35;7.80;99.90
8979;DHT22;4524;51.364;5.448;2023-04-25T00:25:05;7.80;99.90
8979;DHT22;4524;51.364;5.448;2023-04-25T00:27:35;7.70;99.90
8979;DHT22;4524;51.364;5.448;2023-04-25T00:30:04;7.70;99.90
8979;DHT22;4524;51.364;5.448;2023-04-25T00:32:32;7.70;99.90
8979;DHT22;4524;51.364;5.448;2023-04-25T00:35:00;7.70;99.90
8979;DHT22;4524;51.364;5.448;2023-04-25T00:37:28;7.70;1.00
8979;DHT22;4524;51.364;5.448;2023-04-25T00:39:57;7.60;1.00
8979;DHT22;4524;51.364;5.448;2023-04-25T00:42:26;7.60;1.00
8979;DHT22;4524;51.364;5.448;2023-04-25T00:44:56;7.60;1.00
8979;DHT22;4524;51.364;5.448;2023-04-25T00:47:25;7.60;1.00
8979;DHT22;4524;51.364;5.448;2023-04-25T00:49:53;7.60;1.00
8979;DHT22;4524;51.364;5.448;2023-04-25T00:52:21;7.70;1.00
8979;DHT22;4524;51.364;5.448;2023-04-25T00:54:49;7.70;1.00
8979;DHT22;4524;51.364;5.448;2023-04-25T00:57:17;7.80;99.90
8979;DHT22;4524;51.364;5.448;2023-04-25T00:59:45;7.80;1.00
8979;DHT22;4524;51.364;5.448;2023-04-25T01:02:15;7.70;1.00
8979;DHT22;4524;51.364;5.448;2023-04-25T01:04:43;7.70;1.00
8979;DHT22;4524;51.364;5.448;2023-04-25T01:07:12;7.80;1.00
8979;DHT22;4524;51.364;5.448;2023-04-25T01:09:40;7.80;99.90
8979;DHT22;4524;51.364;5.448;2023-04-25T01:12:09;7.70;1.00
8979;DHT22;4524;51.364;5.448;2023-04-25T01:14:37;7.60;1.00
8979;DHT22;4524;51.364;5.448;2023-04-25T01:17:05;7.60;1.00
8979;DHT22;4524;51.364;5.448;2023-04-25T01:19:35;7.60;1.00
8979;DHT22;4524;51.364;5.448;2023-04-25T01:22:05;7.60;1.00
8979;DHT22;4524;51.364;5.448;2023-04-25T01:24:33;7.60;1.00
8979;DHT22;4524;51.364;5.448;2023-04-25T01:27:02;7.60;1.00
8979;DHT22;4524;51.364;5.448;2023-04-25T01:29:31;7.50;1.00
8979;DHT22;4524;51.364;5.448;2023-04-25T01:32:00;7.50;1.00
8979;DHT22;4524;51.364;5.448;2023-04-25T01:34:29;7.50;1.00
8979;DHT22;4524;51.364;5.448;2023-04-25T01:36:59;7.40;1.00
8979;DHT22;4524;51.364;5.448;2023-04-25T01:39:29;7.30;1.00
8979;DHT22;4524;51.364;5.448;2023-04-25T01:41:59;7.30;1.00
8979;DHT22;4524;51.364;5.448;2023-04-25T01:44:29;7.30;1.00
8979;DHT22;4524;51.364;5.448;2023-04-25T01:46:57;7.30;1.00
8979;DHT22;4524;51.364;5.448;2023-04-25T01:49:25;7.20;1.00
8979;DHT22;4524;51.364;5.448;2023-04-25T01:51:53;7.10;1.00
8979;DHT22;4524;51.364;5.448;2023-04-25T01:54:21;7.00;1.00
8979;DHT22;4524;51.364;5.448;2023-04-25T01:56:51;7.00;1.00
8979;DHT22;4524;51.364;5.448;2023-04-25T01:59:21;7.10;1.00
8979;DHT22;4524;51.364;5.448;2023-04-25T02:01:59;7.20;1.00
8979;DHT22;4524;51.364;5.448;2023-04-25T02:04:32;7.10;1.00
8979;DHT22;4524;51.364;5.448;2023-04-25T02:07:01;7.20;1.00
8979;DHT22;4524;51.364;5.448;2023-04-25T02:09:38;7.20;1.00
8979;DHT22;4524;51.364;5.448;2023-04-25T02:12:09;7.10;1.00
8979;DHT22;4524;51.364;5.448;2023-04-25T02:15:08;7.10;1.00
8979;DHT22;4524;51.364;5.448;2023-04-25T02:17:40;7.10;1.00
8979;DHT22;4524;51.364;5.448;2023-04-25T02:20:09;7.00;1.00
8979;DHT22;4524;51.364;5.448;2023-04-25T02:22:39;7.10;1.00
8979;DHT22;4524;51.364;5.448;2023-04-25T02:25:08;7.10;1.00
8979;DHT22;4524;51.364;5.448;2023-04-25T02:27:37;7.10;1.00
8979;DHT22;4524;51.364;5.448;2023-04-25T02:30:08;7.10;1.00
8979;DHT22;4524;51.364;5.448;2023-04-25T02:32:36;7.10;1.00
8979;DHT22;4524;51.364;5.448;2023-04-25T02:35:04;7.20;1.00
8979;DHT22;4524;51.364;5.448;2023-04-25T02:37:34;7.20;1.00
8979;DHT22;4524;51.364;5.448;2023-04-25T02:40:02;7.20;1.00
8979;DHT22;4524;51.364;5.448;2023-04-25T02:42:31;7.20;1.00
8979;DHT22;4524;51.364;5.448;2023-04-25T02:45:00;7.30;1.00
8979;DHT22;4524;51.364;5.448;2023-04-25T02:47:28;7.30;1.00
8979;DHT22;4524;51.364;5.448;2023-04-25T02:49:57;7.30;1.00
8979;DHT22;4524;51.364;5.448;2023-04-25T02:52:25;7.30;1.00
8979;DHT22;4524;51.364;5.448;2023-04-25T02:55:01;7.20;1.00
8979;DHT22;4524;51.364;5.448;2023-04-25T02:57:30;7.20;1.00
8979;DHT22;4524;51.364;5.448;2023-04-25T03:00:00;7.20;1.00
8979;DHT22;4524;51.364;5.448;2023-04-25T03:02:46;7.20;1.00
8979;DHT22;4524;51.364;5.448;2023-04-25T03:05:14;7.20;1.00
8979;DHT22;4524;51.364;5.448;2023-04-25T03:07:43;7.20;1.00
8979;DHT22;4524;51.364;5.448;2023-04-25T03:10:12;7.20;1.00
8979;DHT22;4524;51.364;5.448;2023-04-25T03:12:40;7.20;1.00
8979;DHT22;4524;51.364;5.448;2023-04-25T03:15:10;7.20;1.00
8979;DHT22;4524;51.364;5.448;2023-04-25T03:17:38;7.20;1.00
8979;DHT22;4524;51.364;5.448;2023-04-25T03:20:09;7.20;1.00
8979;DHT22;4524;51.364;5.448;2023-04-25T03:22:38;7.20;1.00
8979;DHT22;4524;51.364;5.448;2023-04-25T03:25:07;7.20;1.00
8979;DHT22;4524;51.364;5.448;2023-04-25T03:27:35;7.10;1.00
8979;DHT22;4524;51.364;5.448;2023-04-25T03:30:04;7.10;1.00
8979;DHT22;4524;51.364;5.448;2023-04-25T03:32:35;7.10;1.00
8979;DHT22;4524;51.364;5.448;2023-04-25T03:35:03;7.10;1.00
8979;DHT22;4524;51.364;5.448;2023-04-25T03:37:32;7.10;1.00
8979;DHT22;4524;51.364;5.448;2023-04-25T03:40:01;7.10;1.00
8979;DHT22;4524;51.364;5.448;2023-04-25T03:42:49;7.10;1.00
8979;DHT22;4524;51.364;5.448;2023-04-25T03:45:17;7.10;1.00
8979;DHT22;4524;51.364;5.448;2023-04-25T03:47:47;7.10;1.00
8979;DHT22;4524;51.364;5.448;2023-04-25T03:50:15;7.10;1.00
8979;DHT22;4524;51.364;5.448;2023-04-25T03:52:43;7.10;1.00
8979;DHT22;4524;51.364;5.448;2023-04-25T03:55:11;7.10;1.00
8979;DHT22;4524;51.364;5.448;2023-04-25T03:57:39;7.10;1.00
8979;DHT22;4524;51.364;5.448;2023-04-25T04:00:08;7.10;1.00
8979;DHT22;4524;51.364;5.448;2023-04-25T04:02:39;7.20;1.00
8979;DHT22;4524;51.364;5.448;2023-04-25T04:05:12;7.10;1.00
8979;DHT22;4524;51.364;5.448;2023-04-25T04:07:46;7.10;1.00
8979;DHT22;4524;51.364;5.448;2023-04-25T04:10:16;7.00;1.00
8979;DHT22;4524;51.364;5.448;2023-04-25T04:12:44;7.10;1.00
8979;DHT22;4524;51.364;5.448;2023-04-25T04:15:12;7.10;1.00
8979;DHT22;4524;51.364;5.448;2023-04-25T04:17:42;7.10;1.00
8979;DHT22;4524;51.364;5.448;2023-04-25T04:20:12;7.10;1.00
8979;DHT22;4524;51.364;5.448;2023-04-25T04:22:40;7.20;1.00
8979;DHT22;4524;51.364;5.448;2023-04-25T04:25:11;7.10;1.00
8979;DHT22;4524;51.364;5.448;2023-04-25T04:27:59;7.00;1.00
8979;DHT22;4524;51.364;5.448;2023-04-25T04:30:47;7.10;1.00
8979;DHT22;4524;51.364;5.448;2023-04-25T04:33:18;7.20;1.00
8979;DHT22;4524;51.364;5.448;2023-04-25T04:35:52;7.20;1.00
8979;DHT22;4524;51.364;5.448;2023-04-25T04:38:22;7.10;1.00
8979;DHT22;4524;51.364;5.448;2023-04-25T04:40:52;7.10;1.00
8979;DHT22;4524;51.364;5.448;2023-04-25T04:43:55;7.10;1.00
8979;DHT22;4524;51.364;5.448;2023-04-25T04:46:33;7.20;1.00
8979;DHT22;4524;51.364;5.448;2023-04-25T04:49:23;7.30;1.00
8979;DHT22;4524;51.364;5.448;2023-04-25T04:52:06;7.30;1.00
8979;DHT22;4524;51.364;5.448;2023-04-25T04:54:52;7.30;1.00
8979;DHT22;4524;51.364;5.448;2023-04-25T04:57:42;7.40;1.00
8979;DHT22;4524;51.364;5.448;2023-04-25T05:00:28;7.40;1.00
8979;DHT22;4524;51.364;5.448;2023-04-25T05:03:17;7.50;1.00
8979;DHT22;4524;51.364;5.448;2023-04-25T05:06:04;7.50;1.00
8979;DHT22;4524;51.364;5.448;2023-04-25T05:08:52;7.60;1.00
8979;DHT22;4524;51.364;5.448;2023-04-25T05:11:30;7.60;1.00
8979;DHT22;4524;51.364;5.448;2023-04-25T05:14:13;7.50;1.00
8979;DHT22;4524;51.364;5.448;2023-04-25T05:16:52;7.40;1.00
8979;DHT22;4524;51.364;5.448;2023-04-25T05:19:40;7.40;1.00
8979;DHT22;4524;51.364;5.448;2023-04-25T05:22:37;7.40;1.00
8979;DHT22;4524;51.364;5.448;2023-04-25T05:25:33;7.30;1.00
8979;DHT22;4524;51.364;5.448;2023-04-25T05:28:23;7.50;1.00
8979;DHT22;4524;51.364;5.448;2023-04-25T05:31:17;7.50;1.00
8979;DHT22;4524;51.364;5.448;2023-04-25T05:34:00;7.50;1.00
8979;DHT22;4524;51.364;5.448;2023-04-25T05:36:39;7.60;1.00
8979;DHT22;4524;51.364;5.448;2023-04-25T05:39:07;7.70;1.00
8979;DHT22;4524;51.364;5.448;2023-04-25T05:42:03;7.80;1.00
8979;DHT22;4524;51.364;5.448;2023-04-25T05:45:00;7.80;1.00
8979;DHT22;4524;51.364;5.448;2023-04-25T05:47:39;7.90;1.00
8979;DHT22;4524;51.364;5.448;2023-04-25T05:50:16;8.10;1.00
8979;DHT22;4524;51.364;5.448;2023-04-25T05:53:01;8.20;99.90
8979;DHT22;4524;51.364;5.448;2023-04-25T05:55:37;8.10;99.90
8979;DHT22;4524;51.364;5.448;2023-04-25T05:58:20;8.10;99.90
8979;DHT22;4524;51.364;5.448;2023-04-25T06:00:48;8.20;99.90
8979;DHT22;4524;51.364;5.448;2023-04-25T06:03:16;8.20;99.90
8979;DHT22;4524;51.364;5.448;2023-04-25T06:05:47;8.20;99.90
8979;DHT22;4524;51.364;5.448;2023-04-25T06:08:16;8.20;99.90
8979;DHT22;4524;51.364;5.448;2023-04-25T06:10:43;8.20;99.90
8979;DHT22;4524;51.364;5.448;2023-04-25T06:13:11;8.40;99.90
8979;DHT22;4524;51.364;5.448;2023-04-25T06:15:41;8.50;99.90
8979;DHT22;4524;51.364;5.448;2023-04-25T06:18:11;8.50;99.90
8979;DHT22;4524;51.364;5.448;2023-04-25T06:20:39;8.40;99.90
8979;DHT22;4524;51.364;5.448;2023-04-25T06:23:07;8.40;99.90
8979;DHT22;4524;51.364;5.448;2023-04-25T06:26:00;8.30;99.90
8979;DHT22;4524;51.364;5.448;2023-04-25T06:28:30;8.30;99.90
8979;DHT22;4524;51.364;5.448;2023-04-25T06:31:00;8.30;99.90
8979;DHT22;4524;51.364;5.448;2023-04-25T06:33:28;8.40;99.90
8979;DHT22;4524;51.364;5.448;2023-04-25T06:35:56;8.50;99.90
8979;DHT22;4524;51.364;5.448;2023-04-25T06:38:26;8.60;99.90
8979;DHT22;4524;51.364;5.448;2023-04-25T06:40:56;8.70;99.90
8979;DHT22;4524;51.364;5.448;2023-04-25T06:43:26;8.70;99.90
8979;DHT22;4524;51.364;5.448;2023-04-25T06:46:14;8.60;99.90
8979;DHT22;4524;51.364;5.448;2023-04-25T06:48:46;8.50;99.90
8979;DHT22;4524;51.364;5.448;2023-04-25T06:51:14;8.60;99.90
8979;DHT22;4524;51.364;5.448;2023-04-25T06:53:43;8.80;99.90
8979;DHT22;4524;51.364;5.448;2023-04-25T06:56:22;9.00;99.90
8979;DHT22;4524;51.364;5.448;2023-04-25T06:59:00;8.70;99.90
8979;DHT22;4524;51.364;5.448;2023-04-25T07:01:32;8.80;99.90
8979;DHT22;4524;51.364;5.448;2023-04-25T07:04:04;8.80;99.90
8979;DHT22;4524;51.364;5.448;2023-04-25T07:06:35;8.90;99.90
8979;DHT22;4524;51.364;5.448;2023-04-25T07:09:05;8.90;99.90
8979;DHT22;4524;51.364;5.448;2023-04-25T07:11:33;8.90;99.90
8979;DHT22;4524;51.364;5.448;2023-04-25T07:14:00;8.80;99.90
8979;DHT22;4524;51.364;5.448;2023-04-25T07:16:29;8.80;99.90
8979;DHT22;4524;51.364;5.448;2023-04-25T07:19:00;8.90;99.90
8979;DHT22;4524;51.364;5.448;2023-04-25T07:21:28;9.00;99.90
8979;DHT22;4524;51.364;5.448;2023-04-25T07:24:00;9.10;99.90
8979;DHT22;4524;51.364;5.448;2023-04-25T07:26:33;9.00;99.90
8979;DHT22;4524;51.364;5.448;2023-04-25T07:29:17;8.90;99.90
8979;DHT22;4524;51.364;5.448;2023-04-25T07:31:45;8.90;99.90
8979;DHT22;4524;51.364;5.448;2023-04-25T07:34:14;9.00;99.90
8979;DHT22;4524;51.364;5.448;2023-04-25T07:36:43;9.10;99.90
8979;DHT22;4524;51.364;5.448;2023-04-25T07:39:11;9.30;99.90
8979;DHT22;4524;51.364;5.448;2023-04-25T07:41:40;9.30;99.90
8979;DHT22;4524;51.364;5.448;2023-04-25T07:44:12;9.40;99.90
8979;DHT22;4524;51.364;5.448;2023-04-25T07:46:40;9.40;99.90
8979;DHT22;4524;51.364;5.448;2023-04-25T07:49:08;9.40;99.90
8979;DHT22;4524;51.364;5.448;2023-04-25T07:51:39;9.40;99.90
8979;DHT22;4524;51.364;5.448;2023-04-25T07:54:12;9.60;99.90
8979;DHT22;4524;51.364;5.448;2023-04-25T07:56:44;9.50;99.90
8979;DHT22;4524;51.364;5.448;2023-04-25T07:59:20;9.50;99.90
8979;DHT22;4524;51.364;5.448;2023-04-25T08:01:48;9.60;99.90
8979;DHT22;4524;51.364;5.448;2023-04-25T08:04:18;9.50;99.90
8979;DHT22;4524;51.364;5.448;2023-04-25T08:06:58;9.80;99.90
8979;DHT22;4524;51.364;5.448;2023-04-25T08:09:30;9.90;99.90
8979;DHT22;4524;51.364;5.448;2023-04-25T08:12:04;9.80;99.90
8979;DHT22;4524;51.364;5.448;2023-04-25T08:14:33;9.60;99.90
8979;DHT22;4524;51.364;5.448;2023-04-25T08:17:04;9.60;99.90
8979;DHT22;4524;51.364;5.448;2023-04-25T08:19:38;9.70;99.90
8979;DHT22;4524;51.364;5.448;2023-04-25T08:22:12;10.00;99.90
8979;DHT22;4524;51.364;5.448;2023-04-25T08:24:49;10.00;99.90
8979;DHT22;4524;51.364;5.448;2023-04-25T08:27:18;10.20;99.90
8979;DHT22;4524;51.364;5.448;2023-04-25T08:29:47;10.10;99.90
8979;DHT22;4524;51.364;5.448;2023-04-25T08:32:16;9.80;99.90
8979;DHT22;4524;51.364;5.448;2023-04-25T08:34:57;9.60;99.90
8979;DHT22;4524;51.364;5.448;2023-04-25T08:37:27;9.50;99.90
8979;DHT22;4524;51.364;5.448;2023-04-25T08:40:00;9.40;99.90
8979;DHT22;4524;51.364;5.448;2023-04-25T08:42:40;9.30;99.90
8979;DHT22;4524;51.364;5.448;2023-04-25T08:45:09;9.20;99.90
8979;DHT22;4524;51.364;5.448;2023-04-25T08:47:39;9.10;99.90
8979;DHT22;4524;51.364;5.448;2023-04-25T08:50:08;9.10;99.90
8979;DHT22;4524;51.364;5.448;2023-04-25T08:52:43;9.30;99.90
8979;DHT22;4524;51.364;5.448;2023-04-25T08:55:13;9.40;99.90
8979;DHT22;4524;51.364;5.448;2023-04-25T08:57:42;9.50;99.90
8979;DHT22;4524;51.364;5.448;2023-04-25T09:00:11;9.60;99.90
8979;DHT22;4524;51.364;5.448;2023-04-25T09:02:42;9.60;99.90
8979;DHT22;4524;51.364;5.448;2023-04-25T09:05:12;9.80;99.90
8979;DHT22;4524;51.364;5.448;2023-04-25T09:07:43;9.90;99.90
8979;DHT22;4524;51.364;5.448;2023-04-25T09:10:12;10.00;99.90
8979;DHT22;4524;51.364;5.448;2023-04-25T09:12:40;10.20;99.90
8979;DHT22;4524;51.364;5.448;2023-04-25T09:15:11;10.40;99.90
8979;DHT22;4524;51.364;5.448;2023-04-25T09:18:05;10.20;99.90
8979;DHT22;4524;51.364;5.448;2023-04-25T09:20:41;10.20;99.90
8979;DHT22;4524;51.364;5.448;2023-04-25T09:23:38;10.50;99.90
8979;DHT22;4524;51.364;5.448;2023-04-25T09:26:07;10.70;99.90
8979;DHT22;4524;51.364;5.448;2023-04-25T09:28:36;11.00;99.90
8979;DHT22;4524;51.364;5.448;2023-04-25T09:31:04;11.10;99.90
8979;DHT22;4524;51.364;5.448;2023-04-25T09:33:40;11.20;99.90
8979;DHT22;4524;51.364;5.448;2023-04-25T09:36:09;10.90;99.90
8979;DHT22;4524;51.364;5.448;2023-04-25T09:38:52;10.80;99.90
8979;DHT22;4524;51.364;5.448;2023-04-25T09:41:27;11.00;99.90
8979;DHT22;4524;51.364;5.448;2023-04-25T09:43:59;10.90;99.90
8979;DHT22;4524;51.364;5.448;2023-04-25T09:46:34;11.00;99.90
8979;DHT22;4524;51.364;5.448;2023-04-25T09:49:06;11.20;99.90
8979;DHT22;4524;51.364;5.448;2023-04-25T09:51:54;11.30;99.90
8979;DHT22;4524;51.364;5.448;2023-04-25T09:54:24;11.30;99.90
8979;DHT22;4524;51.364;5.448;2023-04-25T09:57:14;11.50;99.90
8979;DHT22;4524;51.364;5.448;2023-04-25T09:59:44;11.70;99.90
8979;DHT22;4524;51.364;5.448;2023-04-25T10:02:14;11.60;99.90
8979;DHT22;4524;51.364;5.448;2023-04-25T10:04:45;11.30;99.90
8979;DHT22;4524;51.364;5.448;2023-04-25T10:07:21;11.20;99.90
8979;DHT22;4524;51.364;5.448;2023-04-25T10:09:58;11.20;99.90
8979;DHT22;4524;51.364;5.448;2023-04-25T10:12:27;11.10;99.90
8979;DHT22;4524;51.364;5.448;2023-04-25T10:14:55;11.00;99.90
8979;DHT22;4524;51.364;5.448;2023-04-25T10:17:23;11.20;99.90
8979;DHT22;4524;51.364;5.448;2023-04-25T10:19:52;11.30;99.90
8979;DHT22;4524;51.364;5.448;2023-04-25T10:22:26;11.40;99.90
8979;DHT22;4524;51.364;5.448;2023-04-25T10:24:58;11.50;99.90
8979;DHT22;4524;51.364;5.448;2023-04-25T10:27:27;11.50;99.90
8979;DHT22;4524;51.364;5.448;2023-04-25T10:30:00;11.70;99.90
8979;DHT22;4524;51.364;5.448;2023-04-25T10:32:31;11.60;99.90
8979;DHT22;4524;51.364;5.448;2023-04-25T10:35:10;11.50;99.90
8979;DHT22;4524;51.364;5.448;2023-04-25T10:37:43;12.00;99.90
8979;DHT22;4524;51.364;5.448;2023-04-25T10:40:25;12.40;99.90
8979;DHT22;4524;51.364;5.448;2023-04-25T10:42:53;12.50;99.90
8979;DHT22;4524;51.364;5.448;2023-04-25T10:45:22;12.90;99.90
8979;DHT22;4524;51.364;5.448;2023-04-25T10:47:50;12.60;99.90
8979;DHT22;4524;51.364;5.448;2023-04-25T10:50:18;12.40;99.90
8979;DHT22;4524;51.364;5.448;2023-04-25T10:52:46;12.40;99.90
8979;DHT22;4524;51.364;5.448;2023-04-25T10:55:14;12.10;99.90
8979;DHT22;4524;51.364;5.448;2023-04-25T10:57:45;11.80;99.90
8979;DHT22;4524;51.364;5.448;2023-04-25T11:00:16;11.80;99.90
8979;DHT22;4524;51.364;5.448;2023-04-25T11:02:46;12.00;99.90
8979;DHT22;4524;51.364;5.448;2023-04-25T11:05:22;11.90;99.90
8979;DHT22;4524;51.364;5.448;2023-04-25T11:07:51;11.70;99.90
8979;DHT22;4524;51.364;5.448;2023-04-25T11:10:33;11.70;99.90
8979;DHT22;4524;51.364;5.448;2023-04-25T11:13:04;11.50;99.90
8979;DHT22;4524;51.364;5.448;2023-04-25T11:15:32;11.50;99.90
8979;DHT22;4524;51.364;5.448;2023-04-25T11:18:00;11.50;99.90
8979;DHT22;4524;51.364;5.448;2023-04-25T11:20:29;11.50;99.90
8979;DHT22;4524;51.364;5.448;2023-04-25T11:22:58;11.60;99.90
8979;DHT22;4524;51.364;5.448;2023-04-25T11:25:26;11.50;99.90
8979;DHT22;4524;51.364;5.448;2023-04-25T11:27:57;11.40;99.90
8979;DHT22;4524;51.364;5.448;2023-04-25T11:30:28;11.30;99.90
8979;DHT22;4524;51.364;5.448;2023-04-25T11:32:57;11.50;99.90
8979;DHT22;4524;51.364;5.448;2023-04-25T11:35:25;11.80;99.90
8979;DHT22;4524;51.364;5.448;2023-04-25T11:37:53;11.80;99.90
8979;DHT22;4524;51.364;5.448;2023-04-25T11:40:21;12.10;99.90
8979;DHT22;4524;51.364;5.448;2023-04-25T11:42:49;12.20;99.90
8979;DHT22;4524;51.364;5.448;2023-04-25T11:45:20;12.40;99.90
8979;DHT22;4524;51.364;5.448;2023-04-25T11:47:51;12.40;99.90
8979;DHT22;4524;51.364;5.448;2023-04-25T11:50:19;12.40;99.90
8979;DHT22;4524;51.364;5.448;2023-04-25T11:52:48;11.90;99.90
8979;DHT22;4524;51.364;5.448;2023-04-25T11:55:18;11.60;99.90
8979;DHT22;4524;51.364;5.448;2023-04-25T11:57:48;11.50;99.90
8979;DHT22;4524;51.364;5.448;2023-04-25T12:00:18;11.20;99.90
8979;DHT22;4524;51.364;5.448;2023-04-25T12:02:48;11.00;99.90
8979;DHT22;4524;51.364;5.448;2023-04-25T12:05:23;11.00;99.90
8979;DHT22;4524;51.364;5.448;2023-04-25T12:08:14;10.80;99.90
8979;DHT22;4524;51.364;5.448;2023-04-25T12:10:45;10.70;99.90
8979;DHT22;4524;51.364;5.448;2023-04-25T12:13:20;10.60;99.90
8979;DHT22;4524;51.364;5.448;2023-04-25T12:15:49;10.70;99.90
8979;DHT22;4524;51.364;5.448;2023-04-25T12:18:19;10.70;99.90
8979;DHT22;4524;51.364;5.448;2023-04-25T12:20:49;11.30;99.90
8979;DHT22;4524;51.364;5.448;2023-04-25T12:23:25;11.70;99.90
8979;DHT22;4524;51.364;5.448;2023-04-25T12:25:53;11.80;99.90
8979;DHT22;4524;51.364;5.448;2023-04-25T12:28:24;11.80;99.90
8979;DHT22;4524;51.364;5.448;2023-04-25T12:30:55;11.90;99.90
8979;DHT22;4524;51.364;5.448;2023-04-25T12:33:23;11.90;99.90
8979;DHT22;4524;51.364;5.448;2023-04-25T12:35:52;11.90;99.90
8979;DHT22;4524;51.364;5.448;2023-04-25T12:38:22;11.90;99.90
8979;DHT22;4524;51.364;5.448;2023-04-25T12:40:50;11.80;99.90
8979;DHT22;4524;51.364;5.448;2023-04-25T12:43:17;11.80;99.90
8979;DHT22;4524;51.364;5.448;2023-04-25T12:45:47;11.50;99.90
8979;DHT22;4524;51.364;5.448;2023-04-25T12:48:15;11.40;99.90
8979;DHT22;4524;51.364;5.448;2023-04-25T12:50:43;11.70;99.90
8979;DHT22;4524;51.364;5.448;2023-04-25T12:53:15;11.90;99.90
8979;DHT22;4524;51.364;5.448;2023-04-25T12:55:43;11.90;99.90
8979;DHT22;4524;51.364;5.448;2023-04-25T12:58:12;12.10;99.90
8979;DHT22;4524;51.364;5.448;2023-04-25T13:00:40;12.40;99.90
8979;DHT22;4524;51.364;5.448;2023-04-25T13:03:09;12.20;99.90
8979;DHT22;4524;51.364;5.448;2023-04-25T13:05:38;12.60;99.90
8979;DHT22;4524;51.364;5.448;2023-04-25T13:08:06;12.80;99.90
8979;DHT22;4524;51.364;5.448;2023-04-25T13:10:37;12.50;99.90
8979;DHT22;4524;51.364;5.448;2023-04-25T13:13:05;12.20;99.90
8979;DHT22;4524;51.364;5.448;2023-04-25T13:15:33;11.90;99.90
8979;DHT22;4524;51.364;5.448;2023-04-25T13:18:02;11.80;99.90
8979;DHT22;4524;51.364;5.448;2023-04-25T13:20:30;11.60;99.90
8979;DHT22;4524;51.364;5.448;2023-04-25T13:22:59;11.50;99.90
8979;DHT22;4524;51.364;5.448;2023-04-25T13:25:28;11.40;99.90
8979;DHT22;4524;51.364;5.448;2023-04-25T13:27:58;11.40;99.90
8979;DHT22;4524;51.364;5.448;2023-04-25T13:30:26;11.40;99.90
8979;DHT22;4524;51.364;5.448;2023-04-25T13:32:54;11.50;99.90
8979;DHT22;4524;51.364;5.448;2023-04-25T13:35:23;11.40;99.90
8979;DHT22;4524;51.364;5.448;2023-04-25T13:37:52;11.40;99.90
8979;DHT22;4524;51.364;5.448;2023-04-25T13:40:20;11.40;99.90
8979;DHT22;4524;51.364;5.448;2023-04-25T13:42:51;11.40;99.90
8979;DHT22;4524;51.364;5.448;2023-04-25T13:45:20;11.30;99.90
8979;DHT22;4524;51.364;5.448;2023-04-25T13:47:48;11.10;99.90
8979;DHT22;4524;51.364;5.448;2023-04-25T13:50:16;11.10;99.90
8979;DHT22;4524;51.364;5.448;2023-04-25T13:52:44;11.20;99.90
8979;DHT22;4524;51.364;5.448;2023-04-25T13:55:12;11.30;99.90
8979;DHT22;4524;51.364;5.448;2023-04-25T13:57:40;11.30;99.90
8979;DHT22;4524;51.364;5.448;2023-04-25T14:00:09;11.50;99.90
8979;DHT22;4524;51.364;5.448;2023-04-25T14:02:39;11.60;99.90
8979;DHT22;4524;51.364;5.448;2023-04-25T14:05:07;11.40;99.90
8979;DHT22;4524;51.364;5.448;2023-04-25T14:07:36;11.10;99.90
8979;DHT22;4524;51.364;5.448;2023-04-25T14:10:04;11.10;99.90
8979;DHT22;4524;51.364;5.448;2023-04-25T14:12:33;11.00;99.90
8979;DHT22;4524;51.364;5.448;2023-04-25T14:15:02;10.80;99.90
8979;DHT22;4524;51.364;5.448;2023-04-25T14:17:30;10.70;99.90
8979;DHT22;4524;51.364;5.448;2023-04-25T14:19:59;10.50;99.90
8979;DHT22;4524;51.364;5.448;2023-04-25T14:22:27;10.60;99.90
8979;DHT22;4524;51.364;5.448;2023-04-25T14:24:55;10.80;99.90
8979;DHT22;4524;51.364;5.448;2023-04-25T14:27:23;10.80;99.90
8979;DHT22;4524;51.364;5.448;2023-04-25T14:29:54;11.00;99.90
8979;DHT22;4524;51.364;5.448;2023-04-25T14:32:23;11.30;99.90
8979;DHT22;4524;51.364;5.448;2023-04-25T14:34:50;11.60;99.90
8979;DHT22;4524;51.364;5.448;2023-04-25T14:37:20;11.80;99.90
8979;DHT22;4524;51.364;5.448;2023-04-25T14:39:48;12.20;99.90
8979;DHT22;4524;51.364;5.448;2023-04-25T14:42:16;12.00;99.90
8979;DHT22;4524;51.364;5.448;2023-04-25T14:44:43;11.70;99.90
8979;DHT22;4524;51.364;5.448;2023-04-25T14:47:12;11.50;99.90
8979;DHT22;4524;51.364;5.448;2023-04-25T14:49:40;11.30;99.90
8979;DHT22;4524;51.364;5.448;2023-04-25T14:52:08;11.30;99.90
8979;DHT22;4524;51.364;5.448;2023-04-25T14:54:37;11.20;99.90
8979;DHT22;4524;51.364;5.448;2023-04-25T14:57:05;11.10;99.90
8979;DHT22;4524;51.364;5.448;2023-04-25T14:59:34;10.90;99.90
8979;DHT22;4524;51.364;5.448;2023-04-25T15:02:02;11.00;99.90
8979;DHT22;4524;51.364;5.448;2023-04-25T15:04:30;11.10;99.90
8979;DHT22;4524;51.364;5.448;2023-04-25T15:06:58;11.10;99.90
8979;DHT22;4524;51.364;5.448;2023-04-25T15:09:26;11.20;99.90
8979;DHT22;4524;51.364;5.448;2023-04-25T15:11:56;11.30;99.90
8979;DHT22;4524;51.364;5.448;2023-04-25T15:14:24;11.40;99.90
8979;DHT22;4524;51.364;5.448;2023-04-25T15:16:52;11.30;99.90
8979;DHT22;4524;51.364;5.448;2023-04-25T15:19:21;11.30;99.90
8979;DHT22;4524;51.364;5.448;2023-04-25T15:21:48;11.60;99.90
8979;DHT22;4524;51.364;5.448;2023-04-25T15:24:16;11.90;99.90
8979;DHT22;4524;51.364;5.448;2023-04-25T15:26:44;11.80;99.90
8979;DHT22;4524;51.364;5.448;2023-04-25T15:29:14;11.90;99.90
8979;DHT22;4524;51.364;5.448;2023-04-25T15:31:42;12.00;99.90
8979;DHT22;4524;51.364;5.448;2023-04-25T15:34:10;12.20;99.90
8979;DHT22;4524;51.364;5.448;2023-04-25T15:36:38;12.20;99.90
8979;DHT22;4524;51.364;5.448;2023-04-25T15:39:06;12.40;99.90
8979;DHT22;4524;51.364;5.448;2023-04-25T15:41:33;12.50;99.90
8979;DHT22;4524;51.364;5.448;2023-04-25T15:44:02;12.40;99.90
8979;DHT22;4524;51.364;5.448;2023-04-25T15:46:32;12.40;99.90
8979;DHT22;4524;51.364;5.448;2023-04-25T15:49:00;12.40;99.90
8979;DHT22;4524;51.364;5.448;2023-04-25T15:51:28;12.10;99.90
8979;DHT22;4524;51.364;5.448;2023-04-25T15:53:56;11.80;99.90
8979;DHT22;4524;51.364;5.448;2023-04-25T15:56:24;11.50;99.90
8979;DHT22;4524;51.364;5.448;2023-04-25T15:58:52;11.50;99.90
8979;DHT22;4524;51.364;5.448;2023-04-25T16:01:21;11.40;99.90
8979;DHT22;4524;51.364;5.448;2023-04-25T16:03:51;11.40;99.90
8979;DHT22;4524;51.364;5.448;2023-04-25T16:06:20;11.50;99.90
8979;DHT22;4524;51.364;5.448;2023-04-25T16:08:48;11.80;99.90
8979;DHT22;4524;51.364;5.448;2023-04-25T16:11:15;11.80;99.90
8979;DHT22;4524;51.364;5.448;2023-04-25T16:13:43;11.60;99.90
8979;DHT22;4524;51.364;5.448;2023-04-25T16:16:13;11.60;99.90
8979;DHT22;4524;51.364;5.448;2023-04-25T16:18:41;11.60;99.90
8979;DHT22;4524;51.364;5.448;2023-04-25T16:21:11;11.60;99.90
8979;DHT22;4524;51.364;5.448;2023-04-25T16:23:43;11.30;99.90
8979;DHT22;4524;51.364;5.448;2023-04-25T16:26:10;11.00;99.90
8979;DHT22;4524;51.364;5.448;2023-04-25T16:28:38;10.90;99.90
8979;DHT22;4524;51.364;5.448;2023-04-25T16:31:07;10.80;99.90
8979;DHT22;4524;51.364;5.448;2023-04-25T16:33:34;10.70;99.90
8979;DHT22;4524;51.364;5.448;2023-04-25T16:36:03;10.70;99.90
8979;DHT22;4524;51.364;5.448;2023-04-25T16:38:32;10.70;99.90
8979;DHT22;4524;51.364;5.448;2023-04-25T16:41:00;10.50;99.90